createdAt,value
2019-03-16T00:03:19.098Z,43.80
2019-03-16T00:08:21.389Z,11.60
2019-03-16T00:13:24.191Z,18.83
2019-03-16T00:18:26.546Z,42.77
2019-03-16T00:23:28.579Z,19.33
2019-03-16T00:28:30.787Z,10.10
2019-03-16T00:33:36.306Z,15.97
2019-03-16T00:38:38.405Z,13.67
2019-03-16T00:43:40.433Z,19.23
2019-03-16T00:48:42.747Z,13.23
2019-03-16T00:53:46.137Z,16.23
2019-03-16T00:58:48.367Z,14.53
2019-03-16T01:03:50.616Z,29.13
2019-03-16T01:08:52.850Z,22.57
2019-03-16T01:13:55.166Z,18.10
2019-03-16T01:18:58.970Z,16.73
2019-03-16T01:24:01.306Z,23.77
2019-03-16T01:29:03.563Z,13.93
2019-03-16T01:34:05.840Z,15.80
2019-03-16T01:39:07.869Z,17.73
2019-03-16T01:44:09.933Z,15.07
2019-03-16T01:49:12.029Z,14.07
2019-03-16T01:54:16.582Z,19.23
2019-03-16T01:59:18.787Z,14.80
2019-03-16T02:04:21.049Z,19.13
2019-03-16T02:09:23.291Z,20.90
2019-03-16T02:14:25.891Z,11.30
2019-03-16T02:19:29.801Z,17.40
2019-03-16T02:24:33.299Z,17.33
2019-03-16T02:29:35.347Z,20.87
2019-03-16T02:34:37.729Z,19.37
2019-03-16T02:39:39.812Z,21.70
2019-03-16T02:44:42.095Z,13.37
2019-03-16T02:49:44.245Z,17.70
2019-03-16T02:54:47.685Z,19.47
2019-03-16T02:59:51.117Z,17.43
2019-03-16T03:04:53.149Z,27.33
2019-03-16T03:09:55.166Z,16.97
2019-03-16T03:15:01.444Z,18.67
2019-03-16T03:20:04.108Z,28.73
2019-03-16T03:25:09.075Z,33.27
2019-03-16T03:30:11.193Z,17.57
2019-03-16T03:35:13.339Z,28.00
2019-03-16T03:40:15.363Z,29.13
2019-03-16T03:45:18.396Z,23.77
2019-03-16T03:50:20.464Z,37.40
2019-03-16T03:55:22.815Z,29.37
2019-03-16T04:00:24.898Z,26.03
2019-03-16T04:05:27.113Z,31.97
2019-03-16T04:10:29.192Z,23.83
2019-03-16T04:15:31.336Z,24.63
2019-03-16T04:20:33.432Z,23.73
2019-03-16T04:25:38.473Z,28.27
2019-03-16T04:30:41.025Z,27.73
2019-03-16T04:35:43.722Z,26.90
2019-03-16T04:40:48.788Z,29.50
2019-03-16T04:45:50.814Z,23.93
2019-03-16T04:50:52.879Z,21.67
2019-03-16T04:55:55.090Z,24.27
2019-03-16T05:00:57.090Z,20.17
2019-03-16T05:05:59.361Z,22.63
2019-03-16T05:11:01.526Z,22.43
2019-03-16T05:16:03.763Z,26.00
2019-03-16T05:21:05.752Z,21.47
2019-03-16T05:26:07.902Z,22.93
2019-03-16T05:31:10.366Z,22.67
2019-03-16T05:36:15.069Z,23.60
2019-03-16T05:41:20.232Z,19.43
2019-03-16T05:46:22.277Z,29.83
2019-03-16T05:51:24.325Z,31.47
2019-03-16T05:56:26.625Z,24.50
2019-03-16T06:01:28.696Z,18.07
2019-03-16T06:06:30.926Z,21.80
2019-03-16T06:11:33.040Z,22.00
2019-03-16T06:16:35.353Z,20.77
2019-03-16T06:21:39.089Z,31.77
2019-03-16T06:26:43.079Z,23.87
2019-03-16T06:31:45.134Z,15.17
2019-03-16T06:36:47.380Z,19.73
2019-03-16T06:41:49.396Z,24.57
2019-03-16T06:46:51.565Z,38.97
2019-03-16T06:51:56.639Z,38.67
2019-03-16T06:57:01.775Z,43.80
2019-03-16T07:02:05.494Z,54.10
2019-03-16T07:07:07.821Z,35.57
2019-03-16T07:12:11.760Z,29.83
2019-03-16T07:17:13.926Z,38.50
2019-03-16T07:22:18.675Z,36.10
2019-03-16T07:27:26.062Z,21.10
2019-03-16T07:32:24.692Z,36.50
2019-03-16T07:37:28.052Z,34.20
2019-03-16T07:42:32.980Z,36.53
2019-03-16T07:47:35.297Z,26.53
2019-03-16T07:52:37.323Z,30.33
2019-03-16T07:57:40.833Z,25.20
2019-03-16T08:02:43.313Z,30.13
2019-03-16T08:07:45.440Z,25.17
2019-03-16T08:12:47.625Z,32.50
2019-03-16T08:17:54.162Z,25.63
2019-03-16T08:22:56.429Z,21.37
2019-03-16T08:28:00.848Z,20.80
2019-03-16T08:33:03.173Z,22.33
2019-03-16T08:38:05.205Z,18.00
2019-03-16T08:43:07.255Z,25.73
2019-03-16T08:48:21.821Z,24.60
2019-03-16T08:53:16.377Z,29.20
2019-03-16T08:58:18.641Z,27.33
2019-03-16T09:03:20.689Z,31.93
2019-03-16T09:08:23.809Z,33.83
2019-03-16T09:13:26.024Z,37.63
2019-03-16T09:18:28.307Z,34.80
2019-03-16T09:23:30.419Z,37.10
2019-03-16T09:28:35.403Z,28.47
2019-03-16T09:33:37.539Z,33.40
2019-03-16T09:38:41.469Z,25.03
2019-03-16T09:43:43.644Z,32.77
2019-03-16T09:48:48.981Z,25.93
2019-03-16T09:53:51.005Z,27.43
2019-03-16T09:58:53.296Z,28.47
2019-03-16T10:03:55.450Z,28.27
2019-03-16T10:08:58.624Z,17.40
2019-03-16T10:14:02.418Z,24.93
2019-03-16T10:19:04.660Z,24.53
2019-03-16T10:24:07.765Z,23.30
2019-03-16T10:29:11.665Z,19.23
2019-03-16T10:34:13.668Z,18.60
2019-03-16T10:39:18.456Z,12.00
2019-03-16T10:44:20.680Z,18.60
2019-03-16T10:49:22.690Z,13.50
2019-03-16T10:54:26.824Z,19.43
2019-03-16T10:59:28.903Z,13.63
2019-03-16T11:04:32.757Z,18.80
2019-03-16T11:09:39.617Z,14.00
2019-03-16T11:14:41.769Z,12.97
2019-03-16T11:19:43.836Z,12.43
2019-03-16T11:24:45.956Z,9.53
2019-03-16T11:29:48.026Z,10.93
2019-03-16T11:34:52.355Z,10.37
2019-03-16T11:39:54.394Z,11.37
2019-03-16T11:44:56.476Z,12.73
2019-03-16T11:50:00.956Z,12.57
2019-03-16T11:55:05.744Z,11.50
2019-03-16T12:00:08.561Z,10.27
2019-03-16T12:05:13.377Z,6.03
2019-03-16T12:10:16.494Z,10.57
2019-03-16T12:15:19.944Z,9.00
2019-03-16T12:20:22.245Z,10.53
2019-03-16T12:25:24.558Z,8.23
2019-03-16T12:30:26.606Z,11.77
2019-03-16T12:35:30.413Z,9.63
2019-03-16T12:40:33.366Z,11.67
2019-03-16T12:45:35.547Z,11.30
2019-03-16T12:50:37.712Z,5.47
2019-03-16T12:55:40.335Z,6.10
2019-03-16T13:00:43.763Z,8.77
2019-03-16T13:05:45.882Z,6.97
2019-03-16T13:10:49.034Z,7.23
2019-03-16T13:15:51.505Z,7.67
2019-03-16T13:20:53.871Z,9.20
2019-03-16T13:26:00.940Z,4.93
2019-03-16T13:31:03.122Z,8.13
2019-03-16T13:36:05.795Z,10.53
2019-03-16T13:41:07.969Z,11.57
2019-03-16T13:46:10.250Z,9.57
2019-03-16T13:51:12.549Z,9.97
2019-03-16T13:56:14.908Z,10.30
2019-03-16T14:01:17.375Z,16.53
2019-03-16T14:06:19.486Z,11.37
2019-03-16T14:11:21.672Z,9.80
2019-03-16T14:16:25.796Z,12.53
2019-03-16T14:21:28.368Z,12.90
2019-03-16T14:26:35.487Z,10.43
2019-03-16T14:31:37.578Z,9.03
2019-03-16T14:36:39.682Z,10.97
2019-03-16T14:41:45.089Z,12.60
2019-03-16T14:46:48.309Z,8.37
2019-03-16T14:51:52.313Z,9.70
2019-03-16T14:57:01.863Z,10.40
2019-03-16T15:02:04.725Z,6.43
2019-03-16T15:07:06.891Z,7.93
2019-03-16T15:12:09.238Z,8.67
2019-03-16T15:17:13.727Z,10.47
2019-03-16T15:22:15.882Z,10.70
2019-03-16T15:27:17.989Z,10.43
2019-03-16T15:32:24.820Z,9.70
2019-03-16T15:37:27.290Z,9.60
2019-03-16T15:42:29.356Z,9.83
2019-03-16T15:47:33.127Z,11.33
2019-03-16T15:52:37.385Z,12.50
2019-03-16T15:57:42.385Z,10.80
2019-03-16T16:02:47.646Z,12.47
2019-03-16T16:07:50.106Z,10.67
2019-03-16T16:12:54.254Z,15.37
2019-03-16T16:18:01.567Z,13.83
2019-03-16T16:23:03.788Z,12.90
2019-03-16T16:28:06.133Z,14.13
2019-03-16T16:33:13.084Z,9.17
2019-03-16T16:38:15.498Z,13.67
2019-03-16T16:43:17.922Z,18.17
2019-03-16T16:48:22.453Z,12.90
2019-03-16T16:53:27.761Z,9.80
2019-03-16T16:58:29.823Z,14.90
2019-03-16T17:03:31.892Z,12.47
2019-03-16T17:08:42.741Z,16.77
2019-03-16T17:13:44.855Z,13.63
2019-03-16T17:18:46.999Z,16.73
2019-03-16T17:23:49.122Z,13.93
2019-03-16T17:28:51.334Z,14.27
2019-03-16T17:33:53.399Z,14.13
2019-03-16T17:38:55.670Z,15.83
2019-03-16T17:43:59.899Z,13.47
2019-03-16T17:49:01.982Z,17.70
2019-03-16T17:54:04.069Z,15.93
2019-03-16T17:59:07.276Z,13.37
2019-03-16T18:04:12.396Z,10.93
2019-03-16T18:09:14.576Z,17.10
2019-03-16T18:14:19.739Z,14.13
2019-03-16T18:19:21.766Z,17.57
2019-03-16T18:24:23.838Z,12.47
2019-03-16T18:29:25.867Z,16.47
2019-03-16T18:34:27.892Z,15.90
2019-03-16T18:39:31.124Z,18.10
2019-03-16T18:44:37.757Z,23.77
2019-03-16T18:49:42.789Z,13.30
2019-03-16T18:54:44.886Z,13.63
2019-03-16T18:59:50.742Z,12.67
2019-03-16T19:04:52.793Z,24.47
2019-03-16T19:09:54.847Z,16.60
2019-03-16T19:15:04.250Z,16.33
2019-03-16T19:20:07.437Z,19.50
2019-03-16T19:25:15.061Z,16.10
2019-03-16T19:30:20.869Z,23.53
2019-03-16T19:35:25.390Z,23.93
2019-03-16T19:40:32.034Z,18.27
2019-03-16T19:45:34.139Z,19.43
2019-03-16T19:50:37.193Z,13.33
2019-03-16T19:55:42.670Z,20.80
2019-03-16T20:00:48.280Z,17.60
2019-03-16T20:05:53.042Z,19.70
2019-03-16T20:11:06.423Z,17.93
2019-03-16T20:16:08.806Z,25.03
2019-03-16T20:21:10.954Z,25.23
2019-03-16T20:26:16.791Z,21.30
2019-03-16T20:31:18.822Z,21.37
2019-03-16T20:36:20.981Z,17.33
2019-03-16T20:41:35.511Z,17.27
2019-03-16T20:46:30.051Z,21.40
2019-03-16T20:51:32.113Z,18.47
2019-03-16T20:56:37.441Z,19.00
2019-03-16T21:01:39.524Z,18.43
2019-03-16T21:06:43.498Z,17.17
2019-03-16T21:11:45.547Z,18.07
2019-03-16T21:16:49.622Z,20.13
2019-03-16T21:21:51.948Z,16.73
2019-03-16T21:26:54.304Z,15.27
2019-03-16T21:31:56.337Z,19.83
2019-03-16T21:36:59.590Z,12.57
2019-03-16T21:42:04.687Z,16.63
2019-03-16T21:47:06.943Z,13.70
2019-03-16T21:52:09.036Z,17.80
2019-03-16T21:57:11.400Z,27.97
2019-03-16T22:02:13.871Z,24.87
2019-03-16T22:07:16.127Z,20.30
2019-03-16T22:12:23.511Z,19.93
2019-03-16T22:17:28.036Z,14.20
2019-03-16T22:22:30.122Z,20.43
2019-03-16T22:27:32.161Z,18.33
2019-03-16T22:32:34.386Z,19.03
2019-03-16T22:37:37.811Z,14.47
2019-03-16T22:42:39.948Z,20.83
2019-03-16T22:47:42.381Z,20.77
2019-03-16T22:52:47.256Z,17.03
2019-03-16T22:57:52.322Z,13.17
2019-03-16T23:02:54.422Z,13.80
2019-03-16T23:07:56.742Z,17.43
2019-03-16T23:12:58.824Z,21.40
2019-03-16T23:18:02.385Z,22.10
2019-03-16T23:23:06.381Z,18.43
2019-03-16T23:28:08.567Z,16.40
2019-03-16T23:33:11.755Z,18.97
2019-03-16T23:38:16.570Z,19.60
2019-03-16T23:43:20.064Z,19.80
2019-03-16T23:48:25.410Z,19.47
2019-03-16T23:53:29.506Z,18.80
2019-03-16T23:58:31.808Z,14.30
